sensor_id;sensor_type;location;lat;lon;timestamp;temperature;humidity
12634;DHT22;6382;48.614;8.880;2022-12-18T00:01:37;-12.00;99.90
12634;DHT22;6382;48.614;8.880;2022-12-18T00:04:05;-12.00;99.90
12634;DHT22;6382;48.614;8.880;2022-12-18T00:06:32;-9.60;99.90
12634;DHT22;6382;48.614;8.880;2022-12-18T00:09:00;-12.10;99.90
12634;DHT22;6382;48.614;8.880;2022-12-18T00:11:30;-10.90;99.90
12634;DHT22;6382;48.614;8.880;2022-12-18T00:13:58;-12.20;99.90
12634;DHT22;6382;48.614;8.880;2022-12-18T00:16:25;-12.30;99.90
12634;DHT22;6382;48.614;8.880;2022-12-18T00:18:53;-12.30;99.90
12634;DHT22;6382;48.614;8.880;2022-12-18T00:21:20;-11.60;99.90
12634;DHT22;6382;48.614;8.880;2022-12-18T00:23:48;-10.30;99.90
12634;DHT22;6382;48.614;8.880;2022-12-18T00:26:25;-12.00;99.90
12634;DHT22;6382;48.614;8.880;2022-12-18T00:28:52;-12.70;99.90
12634;DHT22;6382;48.614;8.880;2022-12-18T00:31:20;-10.40;99.90
12634;DHT22;6382;48.614;8.880;2022-12-18T00:33:47;-12.60;99.90
12634;DHT22;6382;48.614;8.880;2022-12-18T00:36:20;-11.20;99.90
12634;DHT22;6382;48.614;8.880;2022-12-18T00:38:47;-11.80;99.90
12634;DHT22;6382;48.614;8.880;2022-12-18T00:41:14;-11.60;99.90
12634;DHT22;6382;48.614;8.880;2022-12-18T00:44:04;-11.00;99.90
12634;DHT22;6382;48.614;8.880;2022-12-18T00:46:32;-11.00;99.90
12634;DHT22;6382;48.614;8.880;2022-12-18T00:49:02;-12.90;99.90
12634;DHT22;6382;48.614;8.880;2022-12-18T00:51:29;-13.10;99.90
12634;DHT22;6382;48.614;8.880;2022-12-18T00:53:56;-10.60;99.90
12634;DHT22;6382;48.614;8.880;2022-12-18T00:56:22;-11.00;99.90
12634;DHT22;6382;48.614;8.880;2022-12-18T00:58:49;-10.70;99.90
12634;DHT22;6382;48.614;8.880;2022-12-18T01:01:16;-10.30;99.90
12634;DHT22;6382;48.614;8.880;2022-12-18T01:03:43;-13.30;99.90
12634;DHT22;6382;48.614;8.880;2022-12-18T01:06:12;-13.50;99.90
12634;DHT22;6382;48.614;8.880;2022-12-18T01:08:38;-13.60;99.90
12634;DHT22;6382;48.614;8.880;2022-12-18T01:11:15;-11.30;99.90
12634;DHT22;6382;48.614;8.880;2022-12-18T01:13:42;-13.80;99.90
12634;DHT22;6382;48.614;8.880;2022-12-18T01:16:11;-11.10;99.90
12634;DHT22;6382;48.614;8.880;2022-12-18T01:18:38;-11.50;99.90
12634;DHT22;6382;48.614;8.880;2022-12-18T01:21:08;-13.80;99.90
12634;DHT22;6382;48.614;8.880;2022-12-18T01:23:35;-13.70;99.90
12634;DHT22;6382;48.614;8.880;2022-12-18T01:26:09;-12.20;99.90
12634;DHT22;6382;48.614;8.880;2022-12-18T01:28:37;-13.50;99.90
12634;DHT22;6382;48.614;8.880;2022-12-18T01:33:44;-13.30;99.90
12634;DHT22;6382;48.614;8.880;2022-12-18T01:38:43;-13.10;99.90
12634;DHT22;6382;48.614;8.880;2022-12-18T01:41:10;-10.70;99.90
12634;DHT22;6382;48.614;8.880;2022-12-18T01:46:09;-12.70;99.90
12634;DHT22;6382;48.614;8.880;2022-12-18T01:48:36;-12.60;99.90
12634;DHT22;6382;48.614;8.880;2022-12-18T01:51:03;-10.80;99.90
12634;DHT22;6382;48.614;8.880;2022-12-18T01:53:30;-12.20;99.90
12634;DHT22;6382;48.614;8.880;2022-12-18T01:55:57;-12.10;99.90
12634;DHT22;6382;48.614;8.880;2022-12-18T02:01:10;-12.00;99.90
12634;DHT22;6382;48.614;8.880;2022-12-18T02:03:39;-9.70;99.90
12634;DHT22;6382;48.614;8.880;2022-12-18T02:06:12;-11.90;99.90
12634;DHT22;6382;48.614;8.880;2022-12-18T02:09:02;-12.00;99.90
12634;DHT22;6382;48.614;8.880;2022-12-18T02:27:16;-11.80;99.90
12634;DHT22;6382;48.614;8.880;2022-12-18T02:29:44;-11.60;99.90
12634;DHT22;6382;48.614;8.880;2022-12-18T02:32:20;-11.50;99.90
12634;DHT22;6382;48.614;8.880;2022-12-18T02:34:48;-10.10;99.90
12634;DHT22;6382;48.614;8.880;2022-12-18T02:37:17;-11.20;99.90
12634;DHT22;6382;48.614;8.880;2022-12-18T02:39:45;-11.00;99.90
12634;DHT22;6382;48.614;8.880;2022-12-18T02:42:13;-10.90;99.90
12634;DHT22;6382;48.614;8.880;2022-12-18T02:44:43;-8.90;99.90
12634;DHT22;6382;48.614;8.880;2022-12-18T02:47:14;-10.80;99.90
12634;DHT22;6382;48.614;8.880;2022-12-18T03:00:18;-10.30;99.90
12634;DHT22;6382;48.614;8.880;2022-12-18T03:02:47;-10.20;99.90
12634;DHT22;6382;48.614;8.880;2022-12-18T03:05:19;-9.90;99.90
12634;DHT22;6382;48.614;8.880;2022-12-18T03:07:49;-10.40;99.90
12634;DHT22;6382;48.614;8.880;2022-12-18T03:10:18;-10.50;99.90
12634;DHT22;6382;48.614;8.880;2022-12-18T03:12:52;-10.50;99.90
12634;DHT22;6382;48.614;8.880;2022-12-18T03:15:54;-10.50;99.90
12634;DHT22;6382;48.614;8.880;2022-12-18T03:18:29;-10.50;99.90
12634;DHT22;6382;48.614;8.880;2022-12-18T03:20:57;-10.60;99.90
12634;DHT22;6382;48.614;8.880;2022-12-18T03:23:27;-10.50;99.90
12634;DHT22;6382;48.614;8.880;2022-12-18T03:25:56;-10.50;99.90
12634;DHT22;6382;48.614;8.880;2022-12-18T03:28:30;-10.00;99.90
12634;DHT22;6382;48.614;8.880;2022-12-18T03:31:00;-10.40;99.90
12634;DHT22;6382;48.614;8.880;2022-12-18T03:36:09;-10.40;99.90
12634;DHT22;6382;48.614;8.880;2022-12-18T03:38:35;-10.40;99.90
12634;DHT22;6382;48.614;8.880;2022-12-18T03:41:19;-10.40;99.90
12634;DHT22;6382;48.614;8.880;2022-12-18T03:46:40;-10.40;99.90
12634;DHT22;6382;48.614;8.880;2022-12-18T03:51:39;-10.40;99.90
12634;DHT22;6382;48.614;8.880;2022-12-18T03:54:09;-10.40;99.90
12634;DHT22;6382;48.614;8.880;2022-12-18T03:56:40;-10.40;99.90
12634;DHT22;6382;48.614;8.880;2022-12-18T03:59:11;-10.30;99.90
12634;DHT22;6382;48.614;8.880;2022-12-18T04:01:40;-10.30;99.90
12634;DHT22;6382;48.614;8.880;2022-12-18T04:04:09;-10.20;99.90
12634;DHT22;6382;48.614;8.880;2022-12-18T04:06:36;-10.00;99.90
12634;DHT22;6382;48.614;8.880;2022-12-18T04:09:04;-10.20;99.90
12634;DHT22;6382;48.614;8.880;2022-12-18T04:11:31;-10.20;99.90
12634;DHT22;6382;48.614;8.880;2022-12-18T04:13:58;-10.20;99.90
12634;DHT22;6382;48.614;8.880;2022-12-18T04:16:26;-10.10;99.90
12634;DHT22;6382;48.614;8.880;2022-12-18T04:18:53;-10.10;99.90
12634;DHT22;6382;48.614;8.880;2022-12-18T04:21:20;-10.00;99.90
12634;DHT22;6382;48.614;8.880;2022-12-18T04:23:47;-9.90;99.90
12634;DHT22;6382;48.614;8.880;2022-12-18T04:26:13;-9.90;99.90
12634;DHT22;6382;48.614;8.880;2022-12-18T04:28:40;-9.90;99.90
12634;DHT22;6382;48.614;8.880;2022-12-18T04:31:07;-9.80;99.90
12634;DHT22;6382;48.614;8.880;2022-12-18T04:33:33;-9.20;99.90
12634;DHT22;6382;48.614;8.880;2022-12-18T04:36:03;-9.80;99.90
12634;DHT22;6382;48.614;8.880;2022-12-18T04:38:30;-9.70;99.90
12634;DHT22;6382;48.614;8.880;2022-12-18T04:40:57;-9.60;99.90
12634;DHT22;6382;48.614;8.880;2022-12-18T04:43:24;-9.50;99.90
12634;DHT22;6382;48.614;8.880;2022-12-18T04:45:50;-9.60;99.90
12634;DHT22;6382;48.614;8.880;2022-12-18T04:48:17;-9.70;99.90
12634;DHT22;6382;48.614;8.880;2022-12-18T04:50:44;-9.70;99.90
12634;DHT22;6382;48.614;8.880;2022-12-18T04:53:10;-9.80;99.90
12634;DHT22;6382;48.614;8.880;2022-12-18T04:55:37;-9.70;99.90
12634;DHT22;6382;48.614;8.880;2022-12-18T04:58:04;-9.70;99.90
12634;DHT22;6382;48.614;8.880;2022-12-18T05:00:31;-9.70;99.90
12634;DHT22;6382;48.614;8.880;2022-12-18T05:02:57;-9.60;99.90
12634;DHT22;6382;48.614;8.880;2022-12-18T05:05:24;-9.60;99.90
12634;DHT22;6382;48.614;8.880;2022-12-18T05:07:51;-9.50;99.90
12634;DHT22;6382;48.614;8.880;2022-12-18T05:10:17;-9.40;99.90
12634;DHT22;6382;48.614;8.880;2022-12-18T05:12:44;-9.30;99.90
12634;DHT22;6382;48.614;8.880;2022-12-18T05:15:30;-9.20;99.90
12634;DHT22;6382;48.614;8.880;2022-12-18T05:17:57;-9.20;99.90
12634;DHT22;6382;48.614;8.880;2022-12-18T05:20:25;-9.10;99.90
12634;DHT22;6382;48.614;8.880;2022-12-18T05:22:53;-9.10;99.90
12634;DHT22;6382;48.614;8.880;2022-12-18T05:25:20;-9.10;99.90
12634;DHT22;6382;48.614;8.880;2022-12-18T05:27:47;-9.20;99.90
12634;DHT22;6382;48.614;8.880;2022-12-18T05:30:14;-9.20;99.90
12634;DHT22;6382;48.614;8.880;2022-12-18T05:32:41;-9.20;99.90
12634;DHT22;6382;48.614;8.880;2022-12-18T05:35:09;-9.30;99.90
12634;DHT22;6382;48.614;8.880;2022-12-18T05:37:36;-9.40;99.90
12634;DHT22;6382;48.614;8.880;2022-12-18T05:40:08;-9.40;99.90
12634;DHT22;6382;48.614;8.880;2022-12-18T05:42:35;-9.40;99.90
12634;DHT22;6382;48.614;8.880;2022-12-18T05:45:02;-9.50;99.90
12634;DHT22;6382;48.614;8.880;2022-12-18T05:47:29;-9.50;99.90
12634;DHT22;6382;48.614;8.880;2022-12-18T05:49:56;-9.50;99.90
12634;DHT22;6382;48.614;8.880;2022-12-18T05:52:22;-9.60;99.90
12634;DHT22;6382;48.614;8.880;2022-12-18T05:54:49;-9.70;99.90
12634;DHT22;6382;48.614;8.880;2022-12-18T05:57:16;-9.70;99.90
12634;DHT22;6382;48.614;8.880;2022-12-18T05:59:42;-9.80;99.90
12634;DHT22;6382;48.614;8.880;2022-12-18T06:02:09;-9.80;99.90
12634;DHT22;6382;48.614;8.880;2022-12-18T06:04:36;-9.80;99.90
12634;DHT22;6382;48.614;8.880;2022-12-18T06:07:03;-9.80;99.90
12634;DHT22;6382;48.614;8.880;2022-12-18T06:09:29;-9.80;99.90
12634;DHT22;6382;48.614;8.880;2022-12-18T06:11:56;-9.70;99.90
12634;DHT22;6382;48.614;8.880;2022-12-18T06:14:23;-9.70;99.90
12634;DHT22;6382;48.614;8.880;2022-12-18T06:16:50;-9.70;99.90
12634;DHT22;6382;48.614;8.880;2022-12-18T06:19:17;-9.70;99.90
12634;DHT22;6382;48.614;8.880;2022-12-18T06:21:43;-9.70;99.90
12634;DHT22;6382;48.614;8.880;2022-12-18T06:24:10;-9.70;99.90
12634;DHT22;6382;48.614;8.880;2022-12-18T06:26:37;-9.70;99.90
12634;DHT22;6382;48.614;8.880;2022-12-18T06:29:05;-9.70;99.90
12634;DHT22;6382;48.614;8.880;2022-12-18T06:31:32;-9.70;99.90
12634;DHT22;6382;48.614;8.880;2022-12-18T06:34:01;-9.80;99.90
12634;DHT22;6382;48.614;8.880;2022-12-18T06:36:28;-9.80;99.90
12634;DHT22;6382;48.614;8.880;2022-12-18T06:38:55;-9.80;99.90
12634;DHT22;6382;48.614;8.880;2022-12-18T06:41:22;-9.80;99.90
12634;DHT22;6382;48.614;8.880;2022-12-18T06:43:49;-9.80;99.90
12634;DHT22;6382;48.614;8.880;2022-12-18T06:46:16;-9.80;99.90
12634;DHT22;6382;48.614;8.880;2022-12-18T06:48:42;-9.80;99.90
12634;DHT22;6382;48.614;8.880;2022-12-18T06:51:15;-9.80;99.90
12634;DHT22;6382;48.614;8.880;2022-12-18T06:53:41;-9.80;99.90
12634;DHT22;6382;48.614;8.880;2022-12-18T06:56:08;-9.80;99.90
12634;DHT22;6382;48.614;8.880;2022-12-18T06:58:37;-9.80;99.90
12634;DHT22;6382;48.614;8.880;2022-12-18T07:01:05;-9.90;99.90
12634;DHT22;6382;48.614;8.880;2022-12-18T07:03:32;-9.90;99.90
12634;DHT22;6382;48.614;8.880;2022-12-18T07:05:58;-9.90;99.90
12634;DHT22;6382;48.614;8.880;2022-12-18T07:08:25;-10.00;99.90
12634;DHT22;6382;48.614;8.880;2022-12-18T07:10:52;-10.00;99.90
12634;DHT22;6382;48.614;8.880;2022-12-18T07:13:22;-10.10;99.90
12634;DHT22;6382;48.614;8.880;2022-12-18T07:15:49;-10.20;99.90
12634;DHT22;6382;48.614;8.880;2022-12-18T07:18:15;-10.20;99.90
12634;DHT22;6382;48.614;8.880;2022-12-18T07:20:42;-10.20;99.90
12634;DHT22;6382;48.614;8.880;2022-12-18T07:23:13;-10.30;99.90
12634;DHT22;6382;48.614;8.880;2022-12-18T07:25:40;-10.30;99.90
12634;DHT22;6382;48.614;8.880;2022-12-18T07:28:09;-10.30;99.90
12634;DHT22;6382;48.614;8.880;2022-12-18T07:30:42;-9.90;99.90
12634;DHT22;6382;48.614;8.880;2022-12-18T07:33:09;-10.30;99.90
12634;DHT22;6382;48.614;8.880;2022-12-18T07:35:36;-9.90;99.90
12634;DHT22;6382;48.614;8.880;2022-12-18T07:38:02;-10.40;99.90
12634;DHT22;6382;48.614;8.880;2022-12-18T07:40:29;-10.40;99.90
12634;DHT22;6382;48.614;8.880;2022-12-18T07:42:56;-10.20;99.90
12634;DHT22;6382;48.614;8.880;2022-12-18T07:45:22;-10.50;99.90
12634;DHT22;6382;48.614;8.880;2022-12-18T07:47:49;-10.50;99.90
12634;DHT22;6382;48.614;8.880;2022-12-18T07:50:16;-10.60;99.90
12634;DHT22;6382;48.614;8.880;2022-12-18T07:52:45;-10.60;99.90
12634;DHT22;6382;48.614;8.880;2022-12-18T07:55:13;-8.50;99.90
12634;DHT22;6382;48.614;8.880;2022-12-18T07:57:40;-10.70;99.90
12634;DHT22;6382;48.614;8.880;2022-12-18T08:00:17;-10.70;99.90
12634;DHT22;6382;48.614;8.880;2022-12-18T08:02:44;-10.70;99.90
12634;DHT22;6382;48.614;8.880;2022-12-18T08:05:11;-10.70;99.90
12634;DHT22;6382;48.614;8.880;2022-12-18T08:07:37;-10.70;99.90
12634;DHT22;6382;48.614;8.880;2022-12-18T08:10:04;-10.70;99.90
12634;DHT22;6382;48.614;8.880;2022-12-18T08:12:31;-10.70;99.90
12634;DHT22;6382;48.614;8.880;2022-12-18T08:15:00;-10.70;99.90
12634;DHT22;6382;48.614;8.880;2022-12-18T08:17:27;-10.60;99.90
12634;DHT22;6382;48.614;8.880;2022-12-18T08:19:53;-10.60;99.90
12634;DHT22;6382;48.614;8.880;2022-12-18T08:22:20;-10.60;99.90
12634;DHT22;6382;48.614;8.880;2022-12-18T08:24:47;-10.50;99.90
12634;DHT22;6382;48.614;8.880;2022-12-18T08:27:14;-10.50;99.90
12634;DHT22;6382;48.614;8.880;2022-12-18T08:29:55;-10.50;99.90
12634;DHT22;6382;48.614;8.880;2022-12-18T08:32:22;-10.40;99.90
12634;DHT22;6382;48.614;8.880;2022-12-18T08:34:49;-10.40;99.90
12634;DHT22;6382;48.614;8.880;2022-12-18T08:37:15;-10.30;99.90
12634;DHT22;6382;48.614;8.880;2022-12-18T08:39:42;-10.30;99.90
12634;DHT22;6382;48.614;8.880;2022-12-18T08:42:09;-10.20;99.90
12634;DHT22;6382;48.614;8.880;2022-12-18T08:44:54;-10.20;99.90
12634;DHT22;6382;48.614;8.880;2022-12-18T08:47:21;-10.20;99.90
12634;DHT22;6382;48.614;8.880;2022-12-18T08:49:48;-8.80;99.90
12634;DHT22;6382;48.614;8.880;2022-12-18T08:52:15;-10.20;99.90
12634;DHT22;6382;48.614;8.880;2022-12-18T08:54:41;-10.30;99.90
12634;DHT22;6382;48.614;8.880;2022-12-18T08:57:08;-10.40;99.90
12634;DHT22;6382;48.614;8.880;2022-12-18T08:59:35;-10.50;99.90
12634;DHT22;6382;48.614;8.880;2022-12-18T09:02:01;-10.50;99.90
12634;DHT22;6382;48.614;8.880;2022-12-18T09:04:28;-10.60;99.90
12634;DHT22;6382;48.614;8.880;2022-12-18T09:06:55;-10.60;99.90
12634;DHT22;6382;48.614;8.880;2022-12-18T09:09:22;-10.60;99.90
12634;DHT22;6382;48.614;8.880;2022-12-18T09:11:48;-10.10;99.90
12634;DHT22;6382;48.614;8.880;2022-12-18T09:14:15;-10.60;99.90
12634;DHT22;6382;48.614;8.880;2022-12-18T09:16:42;-10.60;99.90
12634;DHT22;6382;48.614;8.880;2022-12-18T09:19:09;-10.40;99.90
12634;DHT22;6382;48.614;8.880;2022-12-18T09:21:36;-10.50;99.90
12634;DHT22;6382;48.614;8.880;2022-12-18T09:24:05;-10.40;99.90
12634;DHT22;6382;48.614;8.880;2022-12-18T09:26:36;-10.50;99.90
12634;DHT22;6382;48.614;8.880;2022-12-18T09:29:03;-10.40;99.90
12634;DHT22;6382;48.614;8.880;2022-12-18T09:31:30;-10.40;99.90
12634;DHT22;6382;48.614;8.880;2022-12-18T09:33:57;-10.20;99.90
12634;DHT22;6382;48.614;8.880;2022-12-18T09:36:24;-10.20;99.90
12634;DHT22;6382;48.614;8.880;2022-12-18T09:38:50;-9.90;99.90
12634;DHT22;6382;48.614;8.880;2022-12-18T09:41:39;-9.90;99.90
12634;DHT22;6382;48.614;8.880;2022-12-18T09:44:15;-9.80;99.90
12634;DHT22;6382;48.614;8.880;2022-12-18T09:46:45;-9.70;99.90
12634;DHT22;6382;48.614;8.880;2022-12-18T09:49:14;-8.60;99.90
12634;DHT22;6382;48.614;8.880;2022-12-18T09:51:49;-9.20;99.90
12634;DHT22;6382;48.614;8.880;2022-12-18T09:54:25;-9.50;99.90
12634;DHT22;6382;48.614;8.880;2022-12-18T09:56:53;-9.40;99.90
12634;DHT22;6382;48.614;8.880;2022-12-18T10:01:49;-9.30;99.90
12634;DHT22;6382;48.614;8.880;2022-12-18T10:04:16;-9.10;99.90
12634;DHT22;6382;48.614;8.880;2022-12-18T10:06:52;-9.00;99.90
12634;DHT22;6382;48.614;8.880;2022-12-18T10:09:27;-9.00;99.90
12634;DHT22;6382;48.614;8.880;2022-12-18T10:17:21;-8.60;99.90
12634;DHT22;6382;48.614;8.880;2022-12-18T10:19:55;-8.40;99.90
12634;DHT22;6382;48.614;8.880;2022-12-18T10:25:16;-8.30;99.90
12634;DHT22;6382;48.614;8.880;2022-12-18T10:27:45;-8.30;99.90
12634;DHT22;6382;48.614;8.880;2022-12-18T10:30:20;-8.20;99.90
12634;DHT22;6382;48.614;8.880;2022-12-18T10:32:47;-8.10;99.90
12634;DHT22;6382;48.614;8.880;2022-12-18T10:35:25;-7.90;99.90
12634;DHT22;6382;48.614;8.880;2022-12-18T10:37:59;-7.80;99.90
12634;DHT22;6382;48.614;8.880;2022-12-18T10:40:26;-7.70;99.90
12634;DHT22;6382;48.614;8.880;2022-12-18T10:43:10;-7.70;99.90
12634;DHT22;6382;48.614;8.880;2022-12-18T10:45:37;-7.60;99.90
12634;DHT22;6382;48.614;8.880;2022-12-18T10:48:03;-7.40;99.90
12634;DHT22;6382;48.614;8.880;2022-12-18T10:50:34;-7.30;99.90
12634;DHT22;6382;48.614;8.880;2022-12-18T10:53:23;-7.30;99.90
12634;DHT22;6382;48.614;8.880;2022-12-18T10:55:51;-7.10;99.90
12634;DHT22;6382;48.614;8.880;2022-12-18T11:03:32;-6.60;99.90
12634;DHT22;6382;48.614;8.880;2022-12-18T11:06:08;-6.60;99.90
12634;DHT22;6382;48.614;8.880;2022-12-18T11:08:35;-6.50;99.90
12634;DHT22;6382;48.614;8.880;2022-12-18T11:11:02;-6.50;99.90
12634;DHT22;6382;48.614;8.880;2022-12-18T11:13:30;-6.40;99.90
12634;DHT22;6382;48.614;8.880;2022-12-18T11:15:58;-6.30;99.90
12634;DHT22;6382;48.614;8.880;2022-12-18T11:18:29;-6.30;99.90
12634;DHT22;6382;48.614;8.880;2022-12-18T11:20:57;-6.20;99.90
12634;DHT22;6382;48.614;8.880;2022-12-18T11:23:25;-6.10;99.90
12634;DHT22;6382;48.614;8.880;2022-12-18T11:25:53;-6.00;99.90
12634;DHT22;6382;48.614;8.880;2022-12-18T11:28:34;-5.10;99.90
12634;DHT22;6382;48.614;8.880;2022-12-18T11:31:09;-5.90;99.90
12634;DHT22;6382;48.614;8.880;2022-12-18T11:33:38;-5.90;99.90
12634;DHT22;6382;48.614;8.880;2022-12-18T11:36:23;-5.80;99.90
12634;DHT22;6382;48.614;8.880;2022-12-18T11:38:52;-5.70;99.90
12634;DHT22;6382;48.614;8.880;2022-12-18T11:44:14;-5.30;99.90
12634;DHT22;6382;48.614;8.880;2022-12-18T11:46:53;-5.00;99.90
12634;DHT22;6382;48.614;8.880;2022-12-18T11:49:27;-4.80;99.90
12634;DHT22;6382;48.614;8.880;2022-12-18T11:51:59;-4.60;99.90
12634;DHT22;6382;48.614;8.880;2022-12-18T11:54:26;-4.60;99.90
12634;DHT22;6382;48.614;8.880;2022-12-18T11:59:25;-4.50;99.90
12634;DHT22;6382;48.614;8.880;2022-12-18T12:12:33;-4.30;99.90
12634;DHT22;6382;48.614;8.880;2022-12-18T12:18:31;-4.20;99.90
12634;DHT22;6382;48.614;8.880;2022-12-18T12:20:49;-4.20;99.90
12634;DHT22;6382;48.614;8.880;2022-12-18T12:23:28;-4.30;99.90
12634;DHT22;6382;48.614;8.880;2022-12-18T12:25:58;-4.50;99.90
12634;DHT22;6382;48.614;8.880;2022-12-18T12:36:40;-4.70;99.90
12634;DHT22;6382;48.614;8.880;2022-12-18T12:39:13;-4.70;99.90
12634;DHT22;6382;48.614;8.880;2022-12-18T12:41:43;-4.60;99.90
12634;DHT22;6382;48.614;8.880;2022-12-18T12:44:41;-4.60;99.90
12634;DHT22;6382;48.614;8.880;2022-12-18T12:47:29;-4.60;99.90
12634;DHT22;6382;48.614;8.880;2022-12-18T12:49:58;-4.60;99.90
12634;DHT22;6382;48.614;8.880;2022-12-18T12:54:56;-4.60;99.90
12634;DHT22;6382;48.614;8.880;2022-12-18T12:57:43;-4.40;99.90
12634;DHT22;6382;48.614;8.880;2022-12-18T13:00:13;-4.30;99.90
12634;DHT22;6382;48.614;8.880;2022-12-18T13:02:47;-4.30;99.90
12634;DHT22;6382;48.614;8.880;2022-12-18T13:08:03;-4.40;99.90
12634;DHT22;6382;48.614;8.880;2022-12-18T13:10:36;-4.20;99.90
12634;DHT22;6382;48.614;8.880;2022-12-18T13:13:05;-4.40;99.90
12634;DHT22;6382;48.614;8.880;2022-12-18T13:18:34;-4.20;99.90
12634;DHT22;6382;48.614;8.880;2022-12-18T13:21:02;-4.10;99.90
12634;DHT22;6382;48.614;8.880;2022-12-18T13:23:31;-4.00;99.90
12634;DHT22;6382;48.614;8.880;2022-12-18T13:31:58;-4.10;99.90
12634;DHT22;6382;48.614;8.880;2022-12-18T13:39:58;-4.60;99.90
12634;DHT22;6382;48.614;8.880;2022-12-18T13:42:32;-4.70;99.90
12634;DHT22;6382;48.614;8.880;2022-12-18T13:45:36;-4.70;99.90
12634;DHT22;6382;48.614;8.880;2022-12-18T13:48:04;-4.20;99.90
12634;DHT22;6382;48.614;8.880;2022-12-18T13:50:32;-4.50;99.90
12634;DHT22;6382;48.614;8.880;2022-12-18T13:53:02;-4.50;99.90
12634;DHT22;6382;48.614;8.880;2022-12-18T13:55:29;-4.50;99.90
12634;DHT22;6382;48.614;8.880;2022-12-18T13:58:03;-4.50;99.90
12634;DHT22;6382;48.614;8.880;2022-12-18T14:00:31;-4.60;99.90
12634;DHT22;6382;48.614;8.880;2022-12-18T14:02:58;-4.60;99.90
12634;DHT22;6382;48.614;8.880;2022-12-18T14:05:32;-4.60;99.90
12634;DHT22;6382;48.614;8.880;2022-12-18T14:08:11;-4.80;99.90
12634;DHT22;6382;48.614;8.880;2022-12-18T14:10:42;-4.80;99.90
12634;DHT22;6382;48.614;8.880;2022-12-18T14:13:17;-4.90;99.90
12634;DHT22;6382;48.614;8.880;2022-12-18T14:15:46;-5.00;99.90
12634;DHT22;6382;48.614;8.880;2022-12-18T14:20:51;-4.90;99.90
12634;DHT22;6382;48.614;8.880;2022-12-18T14:23:29;-4.90;99.90
12634;DHT22;6382;48.614;8.880;2022-12-18T14:25:56;-4.80;99.90
12634;DHT22;6382;48.614;8.880;2022-12-18T14:28:30;-4.80;99.90
12634;DHT22;6382;48.614;8.880;2022-12-18T14:30:57;-3.50;99.90
12634;DHT22;6382;48.614;8.880;2022-12-18T14:33:25;-4.80;99.90
12634;DHT22;6382;48.614;8.880;2022-12-18T14:38:22;-4.80;99.90
12634;DHT22;6382;48.614;8.880;2022-12-18T14:40:52;-4.80;99.90
12634;DHT22;6382;48.614;8.880;2022-12-18T14:43:20;-5.00;99.90
12634;DHT22;6382;48.614;8.880;2022-12-18T14:45:46;-4.90;99.90
12634;DHT22;6382;48.614;8.880;2022-12-18T14:48:15;-4.90;99.90
12634;DHT22;6382;48.614;8.880;2022-12-18T14:54:14;-4.90;99.90
12634;DHT22;6382;48.614;8.880;2022-12-18T14:56:36;-5.00;99.90
12634;DHT22;6382;48.614;8.880;2022-12-18T14:59:04;-4.90;99.90
12634;DHT22;6382;48.614;8.880;2022-12-18T15:01:35;-4.90;99.90
12634;DHT22;6382;48.614;8.880;2022-12-18T15:04:03;-5.00;99.90
12634;DHT22;6382;48.614;8.880;2022-12-18T15:06:31;-5.00;99.90
12634;DHT22;6382;48.614;8.880;2022-12-18T15:08:59;-5.00;99.90
12634;DHT22;6382;48.614;8.880;2022-12-18T15:14:40;-5.10;99.90
12634;DHT22;6382;48.614;8.880;2022-12-18T15:17:15;-5.10;99.90
12634;DHT22;6382;48.614;8.880;2022-12-18T15:19:43;-5.10;99.90
12634;DHT22;6382;48.614;8.880;2022-12-18T15:22:20;-5.20;99.90
12634;DHT22;6382;48.614;8.880;2022-12-18T15:24:48;-5.10;99.90
12634;DHT22;6382;48.614;8.880;2022-12-18T15:27:20;-5.10;99.90
12634;DHT22;6382;48.614;8.880;2022-12-18T15:32:31;-5.30;99.90
12634;DHT22;6382;48.614;8.880;2022-12-18T15:35:16;-5.40;99.90
12634;DHT22;6382;48.614;8.880;2022-12-18T15:37:43;-5.70;99.90
12634;DHT22;6382;48.614;8.880;2022-12-18T15:40:17;-5.80;99.90
12634;DHT22;6382;48.614;8.880;2022-12-18T15:42:45;-5.90;99.90
12634;DHT22;6382;48.614;8.880;2022-12-18T15:45:31;-5.90;99.90
12634;DHT22;6382;48.614;8.880;2022-12-18T15:47:57;-6.00;99.90
12634;DHT22;6382;48.614;8.880;2022-12-18T15:50:24;-6.00;99.90
12634;DHT22;6382;48.614;8.880;2022-12-18T15:52:52;-6.00;99.90
12634;DHT22;6382;48.614;8.880;2022-12-18T15:55:22;-6.00;99.90
12634;DHT22;6382;48.614;8.880;2022-12-18T15:58:08;-6.00;99.90
12634;DHT22;6382;48.614;8.880;2022-12-18T16:00:36;-6.00;99.90
12634;DHT22;6382;48.614;8.880;2022-12-18T16:03:03;-5.90;99.90
12634;DHT22;6382;48.614;8.880;2022-12-18T16:05:31;-5.80;99.90
12634;DHT22;6382;48.614;8.880;2022-12-18T16:07:57;-5.70;99.90
12634;DHT22;6382;48.614;8.880;2022-12-18T16:10:25;-5.60;99.90
12634;DHT22;6382;48.614;8.880;2022-12-18T16:12:52;-5.60;99.90
12634;DHT22;6382;48.614;8.880;2022-12-18T16:15:19;-5.50;99.90
12634;DHT22;6382;48.614;8.880;2022-12-18T16:17:50;-5.50;99.90
12634;DHT22;6382;48.614;8.880;2022-12-18T16:20:19;-5.50;99.90
12634;DHT22;6382;48.614;8.880;2022-12-18T16:22:47;-5.50;99.90
12634;DHT22;6382;48.614;8.880;2022-12-18T16:25:21;-5.50;99.90
12634;DHT22;6382;48.614;8.880;2022-12-18T16:27:48;-5.50;99.90
12634;DHT22;6382;48.614;8.880;2022-12-18T16:30:18;-5.50;99.90
12634;DHT22;6382;48.614;8.880;2022-12-18T16:32:45;-5.50;99.90
12634;DHT22;6382;48.614;8.880;2022-12-18T16:35:13;-5.50;99.90
12634;DHT22;6382;48.614;8.880;2022-12-18T16:37:40;-5.50;99.90
12634;DHT22;6382;48.614;8.880;2022-12-18T16:40:08;-5.60;99.90
12634;DHT22;6382;48.614;8.880;2022-12-18T16:42:36;-5.70;99.90
12634;DHT22;6382;48.614;8.880;2022-12-18T16:45:03;-5.80;99.90
12634;DHT22;6382;48.614;8.880;2022-12-18T16:47:30;-5.90;99.90
12634;DHT22;6382;48.614;8.880;2022-12-18T16:49:57;-5.90;99.90
12634;DHT22;6382;48.614;8.880;2022-12-18T16:52:24;-5.90;99.90
12634;DHT22;6382;48.614;8.880;2022-12-18T16:54:50;-5.90;99.90
12634;DHT22;6382;48.614;8.880;2022-12-18T16:57:18;-5.90;99.90
12634;DHT22;6382;48.614;8.880;2022-12-18T16:59:46;-5.90;99.90
12634;DHT22;6382;48.614;8.880;2022-12-18T17:02:15;-5.90;99.90
12634;DHT22;6382;48.614;8.880;2022-12-18T17:04:44;-5.90;99.90
12634;DHT22;6382;48.614;8.880;2022-12-18T17:07:12;-5.90;99.90
12634;DHT22;6382;48.614;8.880;2022-12-18T17:09:39;-5.80;99.90
12634;DHT22;6382;48.614;8.880;2022-12-18T17:12:05;-5.70;99.90
12634;DHT22;6382;48.614;8.880;2022-12-18T17:14:32;-5.70;99.90
12634;DHT22;6382;48.614;8.880;2022-12-18T17:16:59;-5.60;99.90
12634;DHT22;6382;48.614;8.880;2022-12-18T17:19:46;-5.60;99.90
12634;DHT22;6382;48.614;8.880;2022-12-18T17:22:12;-5.50;99.90
12634;DHT22;6382;48.614;8.880;2022-12-18T17:24:39;-5.50;99.90
12634;DHT22;6382;48.614;8.880;2022-12-18T17:27:06;-5.40;99.90
12634;DHT22;6382;48.614;8.880;2022-12-18T17:29:34;-5.40;99.90
12634;DHT22;6382;48.614;8.880;2022-12-18T17:32:01;-5.40;99.90
12634;DHT22;6382;48.614;8.880;2022-12-18T17:34:27;-5.40;99.90
12634;DHT22;6382;48.614;8.880;2022-12-18T17:36:55;-5.30;99.90
12634;DHT22;6382;48.614;8.880;2022-12-18T17:39:22;-5.30;99.90
12634;DHT22;6382;48.614;8.880;2022-12-18T17:41:48;-5.20;99.90
12634;DHT22;6382;48.614;8.880;2022-12-18T17:44:15;-5.20;99.90
12634;DHT22;6382;48.614;8.880;2022-12-18T17:46:42;-5.20;99.90
12634;DHT22;6382;48.614;8.880;2022-12-18T17:49:09;-5.20;99.90
12634;DHT22;6382;48.614;8.880;2022-12-18T17:51:36;-5.10;99.90
12634;DHT22;6382;48.614;8.880;2022-12-18T17:54:03;-5.10;99.90
12634;DHT22;6382;48.614;8.880;2022-12-18T17:56:30;-5.10;99.90